Time;durP1;ratioP1;P1;durP2;ratioP2;P2;SDS_P1;SDS_P2;PMS_P1;PMS_P2;Temp;Humidity;BMP_temperature;BMP_pressure;BME280_temperature;BME280_humidity;BME280_pressure;Samples;Min_cycle;Max_cycle;Signal;HPM_P1;HPM_P2
2022/02/14 00:00:29;;;;;;;;;;;8.70;91.40;;;;;;6285477;22;19907;-87
2022/02/14 00:03:03;;;;;;;;;;;8.70;91.40;;;;;;6286552;22;20233;-88
2022/02/14 00:05:31;;;;;;;;;;;8.70;91.50;;;;;;6314195;22;19964;-88
2022/02/14 00:08:02;;;;;;;;;;;8.70;91.50;;;;;;6260588;22;20310;-88
2022/02/14 00:10:30;;;;;;;;;;;8.70;91.50;;;;;;6286538;22;19903;-87
2022/02/14 00:12:55;;;;;;;;;;;8.70;91.50;;;;;;6286174;22;19945;-88
2022/02/14 00:15:26;;;;;;;;;;;8.70;91.50;;;;;;6286103;22;19903;-88
2022/02/14 00:18:16;;;;;;;;;;;8.70;91.50;;;;;;6314516;22;19903;-88
2022/02/14 00:20:44;;;;;;;;;;;8.70;91.60;;;;;;6309147;22;19891;-87
2022/02/14 00:23:12;;;;;;;;;;;8.70;91.60;;;;;;6311914;22;19949;-89
2022/02/14 00:25:40;;;;;;;;;;;8.70;91.60;;;;;;6311390;22;19943;-88
2022/02/14 00:28:11;;;;;;;;;;;8.80;91.70;;;;;;6336272;22;19915;-88
2022/02/14 00:30:46;;;;;;;;;;;8.80;91.70;;;;;;6289486;22;19918;-89
2022/02/14 00:33:15;;;;;;;;;;;8.80;91.70;;;;;;6260727;22;19907;-88
2022/02/14 00:35:50;;;;;;;;;;;;;;;;;;;;;
2022/02/14 00:38:16;;;;;;;;;;;8.80;91.70;;;;;;6312736;22;19946;-87
2022/02/14 00:40:45;;;;;;;;;;;8.90;91.80;;;;;;6284748;22;19903;-88
2022/02/14 00:43:13;;;;;;;;;;;8.90;91.80;;;;;;6260029;22;19911;-88
2022/02/14 00:45:41;;;;;;;;;;;8.90;91.90;;;;;;6312047;22;19911;-88
2022/02/14 00:48:07;;;;;;;;;;;8.90;91.90;;;;;;6284982;22;19907;-88
2022/02/14 00:50:40;;;;;;;;;;;8.90;91.90;;;;;;6314127;22;19938;-88
2022/02/14 00:53:08;;;;;;;;;;;9.00;91.90;;;;;;6300004;22;19914;-87
2022/02/14 00:55:36;;;;;;;;;;;9.00;92.00;;;;;;6310720;22;19910;-86
2022/02/14 00:58:06;;;;;;;;;;;9.00;92.00;;;;;;6310821;22;19891;-87
2022/02/14 01:00:35;;;;;;;;;;;9.00;92.10;;;;;;6296839;22;19903;-89
2022/02/14 01:03:02;;;;;;;;;;;9.00;92.10;;;;;;6286391;22;19942;-88
2022/02/14 01:05:38;;;;;;;;;;;9.00;92.10;;;;;;6285490;22;19911;-87
2022/02/14 01:08:07;;;;;;;;;;;9.00;92.20;;;;;;6284692;22;19907;-87
2022/02/14 01:10:42;;;;;;;;;;;9.00;92.20;;;;;;6284885;22;20324;-87
2022/02/14 01:13:15;;;;;;;;;;;8.90;92.20;;;;;;6285551;22;19907;-87
2022/02/14 01:15:41;;;;;;;;;;;8.90;92.20;;;;;;6284970;22;19939;-88
2022/02/14 01:18:09;;;;;;;;;;;8.90;92.20;;;;;;6285125;22;20245;-89
2022/02/14 01:20:34;;;;;;;;;;;9.00;92.30;;;;;;6284274;22;20368;-87
2022/02/14 01:23:02;;;;;;;;;;;8.90;92.30;;;;;;6284278;22;19910;-88
2022/02/14 01:25:31;;;;;;;;;;;8.90;92.30;;;;;;6284838;22;20241;-89
2022/02/14 01:28:02;;;;;;;;;;;8.90;92.40;;;;;;6284792;22;19910;-88
2022/02/14 01:30:33;;;;;;;;;;;8.90;92.40;;;;;;6312293;22;19910;-88
2022/02/14 01:33:02;;;;;;;;;;;8.90;92.50;;;;;;6284931;22;20229;-89
2022/02/14 01:35:28;;;;;;;;;;;8.90;92.50;;;;;;6312142;22;19907;-88
2022/02/14 01:37:58;;;;;;;;;;;8.90;92.50;;;;;;6284915;22;19926;-88
2022/02/14 01:40:27;;;;;;;;;;;8.90;92.50;;;;;;6259705;22;19953;-88
2022/02/14 01:42:52;;;;;;;;;;;9.00;92.60;;;;;;6284830;22;19903;-88
2022/02/14 01:45:25;;;;;;;;;;;9.00;92.50;;;;;;6311963;22;19937;-87
2022/02/14 01:47:58;;;;;;;;;;;9.10;92.50;;;;;;6284959;22;20213;-88
2022/02/14 01:50:24;;;;;;;;;;;9.10;92.50;;;;;;6310792;22;20323;-89
2022/02/14 01:52:54;;;;;;;;;;;9.10;92.80;;;;;;6310571;22;19910;-88
2022/02/14 01:55:26;;;;;;;;;;;9.20;92.50;;;;;;6301678;22;19938;-89
2022/02/14 01:57:57;;;;;;;;;;;9.20;92.50;;;;;;6337130;22;19895;-89
2022/02/14 02:00:30;;;;;;;;;;;9.20;92.60;;;;;;6336312;22;19898;-86
2022/02/14 02:02:58;;;;;;;;;;;9.20;92.60;;;;;;6310694;22;19907;-89
2022/02/14 02:05:24;;;;;;;;;;;9.20;92.60;;;;;;6328709;22;19937;-88
2022/02/14 02:08:00;;;;;;;;;;;9.20;92.70;;;;;;6284981;22;19907;-87
2022/02/14 02:10:29;;;;;;;;;;;9.20;92.70;;;;;;6284494;22;19949;-87
2022/02/14 02:12:57;;;;;;;;;;;9.10;92.60;;;;;;6311577;22;19903;-87
2022/02/14 02:15:25;;;;;;;;;;;9.20;92.70;;;;;;6284658;22;20299;-87
2022/02/14 02:17:51;;;;;;;;;;;9.20;92.70;;;;;;6284847;22;20333;-85
2022/02/14 02:20:20;;;;;;;;;;;9.20;92.70;;;;;;6284298;22;19938;-87
2022/02/14 02:23:07;;;;;;;;;;;9.20;92.70;;;;;;6284750;22;20330;-88
2022/02/14 02:25:32;;;;;;;;;;;9.20;92.70;;;;;;6309946;22;19911;-88
2022/02/14 02:27:58;;;;;;;;;;;9.20;92.80;;;;;;6284021;22;20319;-87
2022/02/14 02:30:29;;;;;;;;;;;9.20;92.80;;;;;;6284120;22;19903;-88
2022/02/14 02:32:57;;;;;;;;;;;9.20;92.80;;;;;;6284250;22;19903;-87
2022/02/14 02:35:25;;;;;;;;;;;9.30;92.80;;;;;;6284142;22;19910;-86
2022/02/14 02:38:00;;;;;;;;;;;9.20;92.80;;;;;;6311021;22;19934;-87
2022/02/14 02:40:29;;;;;;;;;;;9.20;92.80;;;;;;6284057;22;20363;-87
2022/02/14 02:42:59;;;;;;;;;;;9.30;92.80;;;;;;6283370;22;19903;-88
2022/02/14 02:45:25;;;;;;;;;;;9.30;92.80;;;;;;6283940;22;19989;-88
2022/02/14 02:47:59;;;;;;;;;;;9.30;92.80;;;;;;6283757;22;19910;-87
2022/02/14 02:51:10;;;;;;;;;;;9.30;92.80;;;;;;6283991;22;19914;-88
2022/02/14 02:53:11;;;;;;;;;;;9.30;92.80;;;;;;6294419;22;20226;-88
2022/02/14 02:55:39;;;;;;;;;;;9.30;92.80;;;;;;6283076;22;19915;-87
2022/02/14 02:58:07;;;;;;;;;;;9.40;92.80;;;;;;6258244;22;19957;-88
2022/02/14 03:00:42;;;;;;;;;;;9.30;92.80;;;;;;6283149;22;19903;-88
2022/02/14 03:03:08;;;;;;;;;;;9.40;92.80;;;;;;6310732;22;19949;-87
2022/02/14 03:05:37;;;;;;;;;;;9.40;92.80;;;;;;6282914;22;19918;-88
2022/02/14 03:08:03;;;;;;;;;;;9.40;92.80;;;;;;6283065;22;19903;-89
2022/02/14 03:10:29;;;;;;;;;;;9.50;92.80;;;;;;6283065;22;19981;-87
2022/02/14 03:13:03;;;;;;;;;;;9.50;92.70;;;;;;6283271;22;19903;-87
2022/02/14 03:15:29;;;;;;;;;;;9.50;92.70;;;;;;6309774;22;19903;-89
2022/02/14 03:17:56;;;;;;;;;;;9.50;92.70;;;;;;6283247;22;19910;-88
2022/02/14 03:20:24;;;;;;;;;;;9.50;92.70;;;;;;6284911;22;19903;-88
2022/02/14 03:22:54;;;;;;;;;;;9.50;92.70;;;;;;6284007;22;19925;-88
2022/02/14 03:25:30;;;;;;;;;;;;;;;;;;;;;
2022/02/14 03:27:58;;;;;;;;;;;9.60;92.70;;;;;;6318131;22;19937;-86
2022/02/14 03:30:26;;;;;;;;;;;9.60;92.70;;;;;;6332543;22;19914;-87
2022/02/14 03:32:52;;;;;;;;;;;9.60;92.70;;;;;;6310212;22;19891;-86
2022/02/14 03:35:25;;;;;;;;;;;9.60;92.70;;;;;;6310111;22;19939;-88
2022/02/14 03:37:53;;;;;;;;;;;9.60;92.70;;;;;;6312290;22;19914;-87
2022/02/14 03:40:19;;;;;;;;;;;9.60;92.70;;;;;;6311989;22;19891;-91
2022/02/14 03:43:01;;;;;;;;;;;9.70;92.70;;;;;;6337425;22;19921;-88
2022/02/14 03:45:30;;;;;;;;;;;9.70;92.70;;;;;;6300387;22;19922;-88
2022/02/14 03:47:57;;;;;;;;;;;9.70;92.60;;;;;;6274239;22;19945;-87
2022/02/14 03:50:31;;;;;;;;;;;9.70;92.60;;;;;;6288502;22;19925;-88
2022/02/14 03:53:00;;;;;;;;;;;9.80;92.60;;;;;;6286550;22;19910;-89
2022/02/14 03:55:31;;;;;;;;;;;9.80;92.60;;;;;;6286085;22;19942;-87
2022/02/14 03:58:10;;;;;;;;;;;9.80;92.60;;;;;;6260487;22;19907;-88
2022/02/14 04:03:33;;;;;;;;;;;9.90;92.60;;;;;;6314695;22;19927;-86
2022/02/14 04:06:01;;;;;;;;;;;9.90;92.60;;;;;;6286357;22;19903;-87
2022/02/14 04:08:35;;;;;;;;;;;9.90;92.50;;;;;;6313086;22;19928;-88
2022/02/14 04:11:01;;;;;;;;;;;9.90;92.50;;;;;;6285292;22;19903;-88
2022/02/14 04:13:37;;;;;;;;;;;10.00;92.50;;;;;;6285505;22;20351;-88
2022/02/14 04:16:05;;;;;;;;;;;10.00;92.50;;;;;;6284893;22;19931;-88
2022/02/14 04:18:31;;;;;;;;;;;10.00;92.40;;;;;;6284815;22;20332;-88
2022/02/14 04:20:57;;;;;;;;;;;10.00;92.40;;;;;;6285279;22;19907;-88
2022/02/14 04:23:32;;;;;;;;;;;10.00;92.40;;;;;;6259270;22;19982;-87
2022/02/14 04:26:00;;;;;;;;;;;10.10;92.40;;;;;;6259828;22;19929;-87
2022/02/14 04:28:33;;;;;;;;;;;10.10;92.30;;;;;;6284720;22;19907;-88
2022/02/14 04:30:59;;;;;;;;;;;10.10;92.30;;;;;;6310692;22;19903;-88
2022/02/14 04:33:24;;;;;;;;;;;10.10;92.20;;;;;;6311853;22;19911;-88
2022/02/14 04:35:51;;;;;;;;;;;10.10;92.30;;;;;;6310568;22;19907;-88
2022/02/14 04:38:17;;;;;;;;;;;10.10;92.20;;;;;;6284159;22;19903;-88
2022/02/14 04:40:54;;;;;;;;;;;10.20;92.30;;;;;;6285000;22;20193;-87
2022/02/14 04:43:22;;;;;;;;;;;10.20;92.20;;;;;;6285715;22;20321;-88
2022/02/14 04:45:53;;;;;;;;;;;10.20;92.20;;;;;;6311667;22;19949;-88
2022/02/14 04:48:35;;;;;;;;;;;;;;;;;;;;;
2022/02/14 04:51:11;;;;;;;;;;;10.30;92.20;;;;;;6312169;22;19985;-88
2022/02/14 04:53:41;;;;;;;;;;;10.20;92.20;;;;;;6285351;22;19903;-88
2022/02/14 04:56:07;;;;;;;;;;;10.20;92.20;;;;;;6284324;22;19921;-89
2022/02/14 04:58:35;;;;;;;;;;;10.20;92.20;;;;;;6284322;22;19906;-88
2022/02/14 05:01:06;;;;;;;;;;;10.20;92.20;;;;;;6284976;22;19914;-87
2022/02/14 05:03:42;;;;;;;;;;;10.20;92.20;;;;;;6285319;22;20260;-87
2022/02/14 05:06:11;;;;;;;;;;;10.30;92.10;;;;;;6286075;22;19903;-87
2022/02/14 05:08:40;;;;;;;;;;;10.30;92.10;;;;;;6306694;22;19911;-88
2022/02/14 05:11:16;;;;;;;;;;;;;;;;;;;;;
2022/02/14 05:13:52;;;;;;;;;;;;;;;;;;;;;
2022/02/14 05:16:23;;;;;;;;;;;10.30;92.10;;;;;;6336808;22;19895;-88
2022/02/14 05:18:49;;;;;;;;;;;10.30;92.10;;;;;;6285992;22;19985;-88
2022/02/14 05:21:23;;;;;;;;;;;10.30;92.00;;;;;;6284755;22;19980;-89
2022/02/14 05:23:51;;;;;;;;;;;10.30;92.10;;;;;;6285633;22;19915;-87
2022/02/14 05:26:27;;;;;;;;;;;10.30;92.00;;;;;;6284225;22;19903;-88
2022/02/14 05:28:55;;;;;;;;;;;10.30;92.00;;;;;;6286295;22;19993;-88
2022/02/14 05:31:23;;;;;;;;;;;10.40;92.00;;;;;;6284415;22;19907;-87
2022/02/14 05:34:09;;;;;;;;;;;10.40;92.00;;;;;;6311500;22;20326;-88
2022/02/14 05:36:38;;;;;;;;;;;10.40;91.90;;;;;;6259986;22;19990;-89
2022/02/14 05:39:05;;;;;;;;;;;10.40;91.90;;;;;;6284687;22;19925;-89
2022/02/14 05:41:36;;;;;;;;;;;10.40;91.90;;;;;;6284655;22;19915;-88
2022/02/14 05:44:11;;;;;;;;;;;10.40;91.90;;;;;;6284797;22;19997;-88
2022/02/14 05:46:40;;;;;;;;;;;10.40;91.90;;;;;;6260901;22;20286;-88
2022/02/14 05:49:05;;;;;;;;;;;10.40;91.90;;;;;;6285012;22;19910;-88
2022/02/14 05:51:33;;;;;;;;;;;10.40;91.90;;;;;;6284653;22;20234;-88
2022/02/14 05:54:02;;;;;;;;;;;10.40;91.90;;;;;;6284549;22;19903;-90
2022/02/14 05:56:38;;;;;;;;;;;;;;;;;;;;;
2022/02/14 05:59:21;;;;;;;;;;;;;;;;;;;;;
2022/02/14 06:02:25;;;;;;;;;;;10.50;91.90;;;;;;6311837;22;19998;-90
2022/02/14 06:05:16;;;;;;;;;;;10.50;91.90;;;;;;6310691;22;19911;-88
2022/02/14 06:07:47;;;;;;;;;;;10.50;91.90;;;;;;6272957;22;19910;-92
2022/02/14 06:10:13;;;;;;;;;;;10.50;92.00;;;;;;6284664;22;20305;-88
2022/02/14 06:16:05;;;;;;;;;;;10.50;92.00;;;;;;6309188;22;19903;-92
2022/02/14 06:18:53;;;;;;;;;;;;;;;;;;;;;
2022/02/14 06:30:49;;;;;;;;;;;;;;;;;;;;;
2022/02/14 06:36:11;;;;;;;;;;;10.50;92.10;;;;;;6208023;23;19908;-90
2022/02/14 06:38:55;;;;;;;;;;;;;;;;;;;;;
2022/02/14 06:42:01;;;;;;;;;;;10.50;92.10;;;;;;6269046;22;19949;-91
2022/02/14 06:44:53;;;;;;;;;;;10.50;92.10;;;;;;6219040;23;19940;-91
2022/02/14 06:47:39;;;;;;;;;;;10.60;92.10;;;;;;6319844;22;19891;-90
2022/02/14 06:51:19;;;;;;;;;;;;;;;;;;;;;
2022/02/14 07:38:02;;;;;;;;;;;;;;;;;;;;;
2022/02/14 07:40:56;;;;;;;;;;;10.70;92.90;;;;;;6236530;23;19948;-92
2022/02/14 08:31:46;;;;;;;;;;;;;;;;;;;;;
2022/02/14 08:34:34;;;;;;;;;;;10.30;96.30;;;;;;5819551;24;19939;-92
2022/02/14 08:40:02;;;;;;;;;;;10.10;97.00;;;;;;6023478;23;19914;-90
2022/02/14 08:42:38;;;;;;;;;;;;;;;;;;;;;
2022/02/14 08:52:25;;;;;;;;;;;;;;;;;;;;;
2022/02/14 08:54:54;;;;;;;;;;;9.80;98.10;;;;;;6218032;23;20405;-87
2022/02/14 08:57:33;;;;;;;;;;;;;;;;;;;;;
2022/02/14 09:00:09;;;;;;;;;;;9.80;98.20;;;;;;6278565;22;19955;-87
2022/02/14 09:02:34;;;;;;;;;;;9.80;98.30;;;;;;6280948;22;20331;-86
2022/02/14 09:08:33;;;;;;;;;;;9.80;98.50;;;;;;6217195;22;19968;-92
2022/02/14 09:16:47;;;;;;;;;;;9.80;98.60;;;;;;6281372;22;19950;-91
2022/02/14 09:19:46;;;;;;;;;;;;;;;;;;;;;
2022/02/14 09:25:23;;;;;;;;;;;9.90;98.80;;;;;;6245969;22;19939;-90
2022/02/14 09:27:56;;;;;;;;;;;9.80;98.80;;;;;;6287170;22;19903;-90
2022/02/14 09:30:36;;;;;;;;;;;9.90;98.80;;;;;;6269327;22;19953;-93
2022/02/14 10:01:37;;;;;;;;;;;;;;;;;;;;;
2022/02/14 10:23:29;;;;;;;;;;;;;;;;;;;;;
2022/02/14 11:03:44;;;;;;;;;;;10.80;97.90;;;;;;5969550;24;19950;-91
2022/02/14 11:06:32;;;;;;;;;;;10.80;97.90;;;;;;6025781;23;19917;-94
2022/02/14 11:09:06;;;;;;;;;;;10.90;97.80;;;;;;6070537;23;20003;-91
2022/02/14 11:12:04;;;;;;;;;;;;;;;;;;;;;
2022/02/14 11:14:59;;;;;;;;;;;10.80;97.50;;;;;;6157177;23;20097;-92
2022/02/14 11:17:56;;;;;;;;;;;;;;;;;;;;;
2022/02/14 11:21:05;;;;;;;;;;;;;;;;;;;;;
2022/02/14 11:30:29;;;;;;;;;;;;;;;;;;;;;
2022/02/14 11:37:06;;;;;;;;;;;11.10;96.80;;;;;;6082587;23;19913;-93
2022/02/14 11:39:57;;;;;;;;;;;11.20;96.60;;;;;;6124241;23;19973;-92
2022/02/14 11:43:31;;;;;;;;;;;11.30;96.30;;;;;;6123783;23;19899;-90
2022/02/14 12:14:38;;;;;;;;;;;;;;;;;;;;;
2022/02/14 12:30:36;;;;;;;;;;;11.30;94.20;;;;;;5987270;24;19906;-91
2022/02/14 12:34:07;;;;;;;;;;;;;;;;;;;;;
2022/02/14 12:46:28;;;;;;;;;;;;;;;;;;;;;
2022/02/14 12:49:14;;;;;;;;;;;11.80;93.40;;;;;;6159072;23;19984;-94
2022/02/14 12:51:45;;;;;;;;;;;11.80;93.10;;;;;;6279463;22;20433;-96
2022/02/14 12:55:01;;;;;;;;;;;;;;;;;;;;;
2022/02/14 13:04:14;;;;;;;;;;;;;;;;;;;;;
2022/02/14 13:16:50;;;;;;;;;;;11.50;91.40;;;;;;6302563;22;19914;-93
2022/02/14 13:41:46;;;;;;;;;;;11.80;90.80;;;;;;6221472;23;19907;-91
2022/02/14 13:44:54;;;;;;;;;;;;;;;;;;;;;
2022/02/14 13:48:04;;;;;;;;;;;;;;;;;;;;;
2022/02/14 13:51:07;;;;;;;;;;;11.70;91.00;;;;;;6245716;23;19954;-92
2022/02/14 14:02:38;;;;;;;;;;;;;;;;;;;;;
2022/02/14 14:09:00;;;;;;;;;;;;;;;;;;;;;
2022/02/14 14:21:23;;;;;;;;;;;11.20;91.80;;;;;;6054995;23;19909;-87
2022/02/14 14:24:11;;;;;;;;;;;11.20;91.90;;;;;;6103100;23;19929;-91
2022/02/14 14:32:50;;;;;;;;;;;11.20;92.00;;;;;;6231727;23;19907;-91
2022/02/14 14:35:45;;;;;;;;;;;11.10;92.00;;;;;;6222762;23;19922;-94
2022/02/14 14:44:41;;;;;;;;;;;11.20;92.20;;;;;;6184887;23;20276;-92
2022/02/14 14:50:21;;;;;;;;;;;11.50;92.00;;;;;;6250438;23;19903;-94
2022/02/14 14:52:56;;;;;;;;;;;;;;;;;;;;;
2022/02/14 14:55:25;;;;;;;;;;;11.40;91.60;;;;;;6258260;23;19927;-91
2022/02/14 14:58:33;;;;;;;;;;;;;;;;;;;;;
2022/02/14 15:01:04;;;;;;;;;;;11.40;91.80;;;;;;6274770;22;19891;-90
2022/02/14 15:04:09;;;;;;;;;;;;;;;;;;;;;
2022/02/14 15:07:15;;;;;;;;;;;11.50;91.40;;;;;;6254171;23;19947;-90
2022/02/14 15:10:23;;;;;;;;;;;;;;;;;;;;;
2022/02/14 15:13:20;;;;;;;;;;;;;;;;;;;;;
2022/02/14 15:15:58;;;;;;;;;;;;;;;;;;;;;
2022/02/14 15:25:02;;;;;;;;;;;;;;;;;;;;;
2022/02/14 15:28:05;;;;;;;;;;;10.90;91.40;;;;;;6251648;23;19931;-92
2022/02/14 15:34:48;;;;;;;;;;;;;;;;;;;;;
2022/02/14 15:40:34;;;;;;;;;;;10.70;91.90;;;;;;6184307;23;19919;-92
2022/02/14 15:46:25;;;;;;;;;;;;;;;;;;;;;
2022/02/14 15:49:34;;;;;;;;;;;10.50;92.10;;;;;;6271991;23;19898;-93
2022/02/14 15:52:03;;;;;;;;;;;10.50;92.10;;;;;;6124070;23;19940;-91
2022/02/14 15:55:11;;;;;;;;;;;;;;;;;;;;;
2022/02/14 16:04:26;;;;;;;;;;;10.40;92.10;;;;;;6204256;23;19903;-91
2022/02/14 16:12:58;;;;;;;;;;;10.30;92.30;;;;;;6135010;23;19911;-92
2022/02/14 16:15:44;;;;;;;;;;;10.20;92.40;;;;;;6157072;23;19904;-90
2022/02/14 16:18:14;;;;;;;;;;;10.20;92.50;;;;;;6157109;23;19912;-90
2022/02/14 16:20:45;;;;;;;;;;;10.20;92.50;;;;;;6184244;23;20030;-90
2022/02/14 16:26:26;;;;;;;;;;;10.20;92.60;;;;;;6138185;23;19979;-90
2022/02/14 16:29:23;;;;;;;;;;;;;;;;;;;;;
2022/02/14 16:31:56;;;;;;;;;;;10.20;92.80;;;;;;6225240;23;20036;-90
2022/02/14 16:34:27;;;;;;;;;;;10.20;92.80;;;;;;6228406;23;19907;-89
2022/02/14 16:37:32;;;;;;;;;;;;;;;;;;;;;
2022/02/14 16:40:20;;;;;;;;;;;10.20;92.90;;;;;;6274004;22;19896;-90
2022/02/14 16:43:19;;;;;;;;;;;10.10;93.10;;;;;;6245626;23;19915;-89
2022/02/14 16:45:42;;;;;;;;;;;10.10;93.10;;;;;;6255020;23;19991;-90
2022/02/14 16:48:16;;;;;;;;;;;10.10;93.50;;;;;;6202143;23;19919;-89
2022/02/14 16:51:10;;;;;;;;;;;;;;;;;;;;;
2022/02/14 16:53:48;;;;;;;;;;;;;;;;;;;;;
2022/02/14 17:03:11;;;;;;;;;;;9.90;93.30;;;;;;6114729;23;19988;-91
2022/02/14 17:05:40;;;;;;;;;;;9.90;93.30;;;;;;6107212;23;20447;-88
2022/02/14 17:08:18;;;;;;;;;;;9.90;93.30;;;;;;6103933;23;19916;-89
2022/02/14 17:10:44;;;;;;;;;;;9.90;93.30;;;;;;6211172;23;19923;-88
2022/02/14 17:13:12;;;;;;;;;;;9.90;93.40;;;;;;6248609;23;19911;-88
2022/02/14 17:15:43;;;;;;;;;;;9.90;93.40;;;;;;6222399;23;19911;-89
2022/02/14 17:18:24;;;;;;;;;;;9.90;93.30;;;;;;6248030;23;19983;-89
2022/02/14 17:20:50;;;;;;;;;;;9.90;93.20;;;;;;6222366;23;19912;-87
2022/02/14 17:23:15;;;;;;;;;;;9.90;93.20;;;;;;6249578;23;19904;-88
2022/02/14 17:25:58;;;;;;;;;;;9.90;93.20;;;;;;6222693;23;20273;-89
2022/02/14 17:29:03;;;;;;;;;;;;;;;;;;;;;
2022/02/14 17:31:35;;;;;;;;;;;9.90;93.60;;;;;;6251396;23;19999;-87
2022/02/14 17:34:08;;;;;;;;;;;9.80;93.80;;;;;;6248452;23;20225;-89
2022/02/14 17:36:43;;;;;;;;;;;9.80;94.00;;;;;;6247868;23;19922;-89
2022/02/14 17:39:29;;;;;;;;;;;9.80;94.10;;;;;;6249096;23;19961;-90
2022/02/14 17:42:05;;;;;;;;;;;9.70;94.20;;;;;;6247870;23;19985;-88
2022/02/14 17:45:00;;;;;;;;;;;9.70;94.20;;;;;;6247925;23;20309;-88
2022/02/14 17:47:28;;;;;;;;;;;9.60;94.20;;;;;;6247944;23;19946;-88
2022/02/14 17:49:57;;;;;;;;;;;9.60;94.30;;;;;;6227024;23;19903;-87
2022/02/14 17:52:25;;;;;;;;;;;9.60;94.30;;;;;;6229562;23;19908;-89
2022/02/14 17:55:00;;;;;;;;;;;9.50;94.30;;;;;;6254564;23;20341;-88
2022/02/14 17:57:35;;;;;;;;;;;9.50;94.30;;;;;;6256227;23;19904;-87
2022/02/14 18:00:10;;;;;;;;;;;9.40;94.50;;;;;;6257165;23;19907;-87
2022/02/14 18:02:41;;;;;;;;;;;9.40;94.50;;;;;;6258104;23;19903;-88
2022/02/14 18:05:07;;;;;;;;;;;9.40;94.60;;;;;;6235100;23;19896;-90
2022/02/14 18:11:03;;;;;;;;;;;9.30;94.60;;;;;;6256229;23;19926;-88
2022/02/14 18:16:12;;;;;;;;;;;9.30;94.70;;;;;;6288953;22;19926;-87
2022/02/14 18:19:14;;;;;;;;;;;9.30;94.60;;;;;;6304296;22;19896;-89
2022/02/14 18:21:52;;;;;;;;;;;9.30;94.70;;;;;;6176249;22;19935;-89
2022/02/14 18:24:44;;;;;;;;;;;9.30;94.70;;;;;;6264489;22;19938;-90
2022/02/14 18:32:18;;;;;;;;;;;9.30;94.80;;;;;;6288997;22;19919;-88
2022/02/14 18:35:05;;;;;;;;;;;;;;;;;;;;;
2022/02/14 18:37:34;;;;;;;;;;;9.30;94.70;;;;;;6287784;22;19927;-88
2022/02/14 18:43:07;;;;;;;;;;;9.30;94.60;;;;;;6278480;22;19910;-91
2022/02/14 18:52:40;;;;;;;;;;;;;;;;;;;;;
2022/02/14 19:04:59;;;;;;;;;;;;;;;;;;;;;
2022/02/14 21:41:24;;;;;;;;;;;;;;;;;;;;;
2022/02/14 22:47:50;;;;;;;;;;;8.10;96.20;;;;;;5953195;24;19998;-88
2022/02/14 22:50:25;;;;;;;;;;;8.10;96.10;;;;;;5983696;23;19950;-89
2022/02/14 22:52:59;;;;;;;;;;;8.10;96.20;;;;;;5991729;23;19914;-89
2022/02/14 22:55:41;;;;;;;;;;;8.10;96.20;;;;;;6145680;23;19909;-89
2022/02/14 22:58:09;;;;;;;;;;;8.10;96.20;;;;;;6135510;23;19932;-89
2022/02/14 23:02:56;;;;;;;;;;;8.10;96.20;;;;;;6158881;23;19908;-87
2022/02/14 23:03:43;;;;;;;;;;;8.10;96.20;;;;;;6157609;23;19927;-88
2022/02/14 23:06:19;;;;;;;;;;;;;;;;;;;;;
2022/02/14 23:14:13;;;;;;;;;;;8.10;96.40;;;;;;6159660;23;19986;-88
2022/02/14 23:16:41;;;;;;;;;;;8.10;96.40;;;;;;6132419;23;20311;-88
2022/02/14 23:19:10;;;;;;;;;;;8.10;96.40;;;;;;6133317;23;20311;-87
2022/02/14 23:21:39;;;;;;;;;;;8.10;96.40;;;;;;6133244;23;19988;-88
2022/02/14 23:24:08;;;;;;;;;;;8.10;96.40;;;;;;6132651;23;19928;-89
2022/02/14 23:26:37;;;;;;;;;;;8.10;96.40;;;;;;6133281;23;19909;-87
2022/02/14 23:29:05;;;;;;;;;;;8.20;96.40;;;;;;6153580;23;19916;-89
2022/02/14 23:31:31;;;;;;;;;;;8.20;96.40;;;;;;6163361;23;19912;-88
2022/02/14 23:33:59;;;;;;;;;;;8.20;96.40;;;;;;6192305;23;19927;-88
2022/02/14 23:36:25;;;;;;;;;;;8.20;96.50;;;;;;6192389;23;19952;-88
2022/02/14 23:39:33;;;;;;;;;;;8.10;96.40;;;;;;6192877;23;19911;-88
2022/02/14 23:41:39;;;;;;;;;;;8.10;96.40;;;;;;6202865;23;19904;-89
2022/02/14 23:44:15;;;;;;;;;;;;;;;;;;;;;
2022/02/14 23:46:44;;;;;;;;;;;8.10;96.40;;;;;;6219319;23;19971;-87
2022/02/14 23:49:18;;;;;;;;;;;8.10;96.50;;;;;;6192026;23;19935;-87
2022/02/14 23:51:47;;;;;;;;;;;8.00;96.50;;;;;;6218912;23;20238;-88
2022/02/14 23:54:20;;;;;;;;;;;8.00;96.50;;;;;;6192335;23;19904;-88
2022/02/14 23:57:10;;;;;;;;;;;8.00;96.50;;;;;;6191370;23;19907;-87
2022/02/14 23:59:44;;;;;;;;;;;7.90;96.60;;;;;;6192231;23;20310;-87
